createdAt,value
2023-06-29T00:01:37.722Z,64.60
2023-06-29T00:04:05.967Z,64.60
2023-06-29T00:06:38.071Z,64.60
2023-06-29T00:09:06.213Z,64.60
2023-06-29T00:11:34.330Z,64.70
2023-06-29T00:14:02.251Z,64.60
2023-06-29T00:16:31.850Z,64.70
2023-06-29T00:19:02.219Z,64.70
2023-06-29T00:21:30.346Z,64.70
2023-06-29T00:23:58.176Z,64.70
2023-06-29T00:26:30.152Z,64.70
2023-06-29T00:28:58.341Z,64.70
2023-06-29T00:31:26.372Z,64.70
2023-06-29T00:33:54.247Z,64.70
2023-06-29T00:36:23.504Z,64.70
2023-06-29T00:38:51.407Z,64.70
2023-06-29T00:41:19.285Z,64.70
2023-06-29T00:43:47.651Z,64.70
2023-06-29T00:46:20.058Z,64.70
2023-06-29T00:48:48.879Z,64.70
2023-06-29T00:51:17.444Z,64.80
2023-06-29T00:53:46.899Z,64.80
2023-06-29T00:56:14.886Z,64.80
2023-06-29T00:58:43.081Z,64.80
2023-06-29T01:01:10.977Z,64.80
2023-06-29T01:03:41.733Z,64.80
2023-06-29T01:06:14.753Z,64.80
2023-06-29T01:08:50.420Z,64.80
2023-06-29T01:11:20.918Z,64.80
2023-06-29T01:13:53.034Z,64.80
2023-06-29T01:16:22.269Z,64.80
2023-06-29T01:18:52.381Z,64.80
2023-06-29T01:21:22.222Z,64.80
2023-06-29T01:23:55.369Z,64.80
2023-06-29T01:26:24.774Z,64.80
2023-06-29T01:28:53.003Z,64.80
2023-06-29T01:31:21.048Z,64.80
2023-06-29T01:33:48.912Z,64.80
2023-06-29T01:36:22.947Z,64.90
2023-06-29T01:38:57.144Z,64.90
2023-06-29T01:41:27.289Z,64.90
2023-06-29T01:43:56.205Z,64.80
2023-06-29T01:46:24.948Z,64.90
2023-06-29T01:48:53.686Z,64.90
2023-06-29T01:51:21.875Z,64.90
2023-06-29T01:53:50.874Z,64.90
2023-06-29T01:56:18.752Z,64.90
2023-06-29T01:58:48.638Z,64.90
2023-06-29T02:01:16.565Z,64.90
2023-06-29T02:03:44.593Z,64.90
2023-06-29T02:06:12.563Z,64.90
2023-06-29T02:08:40.540Z,64.90
2023-06-29T02:11:09.468Z,65.00
2023-06-29T02:13:37.292Z,65.00
2023-06-29T02:16:07.039Z,64.90
2023-06-29T02:18:34.897Z,64.90
2023-06-29T02:21:02.723Z,64.90
2023-06-29T02:23:30.581Z,65.00
2023-06-29T02:25:58.426Z,64.90
2023-06-29T02:28:26.930Z,65.00
2023-06-29T02:30:54.781Z,65.00
2023-06-29T02:33:24.128Z,65.00
2023-06-29T02:35:52.141Z,65.00
2023-06-29T02:38:21.473Z,65.00
2023-06-29T02:40:49.393Z,65.00
2023-06-29T02:43:17.554Z,65.00
2023-06-29T02:45:45.744Z,65.00
2023-06-29T02:48:14.208Z,65.00
2023-06-29T02:50:43.426Z,65.80
2023-06-29T02:53:13.010Z,65.10
2023-06-29T02:55:40.860Z,65.10
2023-06-29T02:58:08.698Z,65.10
2023-06-29T03:00:36.585Z,65.10
2023-06-29T03:03:04.817Z,65.10
2023-06-29T03:05:32.753Z,65.10
2023-06-29T03:08:01.922Z,65.10
2023-06-29T03:10:30.680Z,65.10
2023-06-29T03:12:58.524Z,65.10
2023-06-29T03:15:26.355Z,65.10
2023-06-29T03:17:54.254Z,65.10
2023-06-29T03:20:22.431Z,65.20
2023-06-29T03:22:50.309Z,65.10
2023-06-29T03:25:19.519Z,65.10
2023-06-29T03:27:47.317Z,65.10
2023-06-29T03:30:15.496Z,65.10
2023-06-29T03:32:43.337Z,65.10
2023-06-29T03:35:11.278Z,65.10
2023-06-29T03:37:39.099Z,65.20
2023-06-29T03:40:08.648Z,65.10
2023-06-29T03:42:37.830Z,65.10
2023-06-29T03:45:06.520Z,65.10
2023-06-29T03:47:34.470Z,65.10
2023-06-29T03:50:02.368Z,65.10
2023-06-29T03:52:30.212Z,65.20
2023-06-29T03:54:58.013Z,65.20
2023-06-29T03:57:25.853Z,65.20
2023-06-29T03:59:55.020Z,65.20
2023-06-29T04:02:22.979Z,65.20
2023-06-29T04:04:50.896Z,65.20
2023-06-29T04:07:18.785Z,66.00
2023-06-29T04:09:46.740Z,65.20
2023-06-29T04:12:14.892Z,65.30
2023-06-29T04:14:42.697Z,65.20
2023-06-29T04:17:11.849Z,65.30
2023-06-29T04:19:39.736Z,65.30
2023-06-29T04:22:07.684Z,65.30
2023-06-29T04:24:35.553Z,65.30
2023-06-29T04:27:03.420Z,65.30
2023-06-29T04:29:31.309Z,65.30
2023-06-29T04:31:59.189Z,65.30
2023-06-29T04:34:28.353Z,65.30
2023-06-29T04:36:57.433Z,65.20
2023-06-29T04:39:25.308Z,65.20
2023-06-29T04:42:01.892Z,65.20
2023-06-29T04:44:32.907Z,65.20
2023-06-29T04:47:02.080Z,65.20
2023-06-29T04:49:33.400Z,65.30
2023-06-29T04:52:01.723Z,65.20
2023-06-29T04:54:29.798Z,65.20
2023-06-29T04:56:57.625Z,65.20
2023-06-29T04:59:26.942Z,65.20
2023-06-29T05:01:55.240Z,65.20
2023-06-29T05:04:23.281Z,65.20
2023-06-29T05:06:52.474Z,65.20
2023-06-29T05:09:20.649Z,65.20
2023-06-29T05:11:48.512Z,65.20
2023-06-29T05:14:16.398Z,65.20
2023-06-29T05:16:44.266Z,65.20
2023-06-29T05:19:12.172Z,65.20
2023-06-29T05:21:39.991Z,65.10
2023-06-29T05:24:09.594Z,65.10
2023-06-29T05:26:37.386Z,65.20
2023-06-29T05:29:06.375Z,65.10
2023-06-29T05:31:34.471Z,65.10
2023-06-29T05:34:02.469Z,65.10
2023-06-29T05:36:30.493Z,65.10
2023-06-29T05:38:58.342Z,65.10
2023-06-29T05:41:27.637Z,65.10
2023-06-29T05:43:55.466Z,65.10
2023-06-29T05:46:23.880Z,65.10
2023-06-29T05:48:51.798Z,65.10
2023-06-29T05:51:19.648Z,65.10
2023-06-29T05:53:47.503Z,65.10
2023-06-29T05:56:15.376Z,65.20
2023-06-29T05:58:44.510Z,65.10
2023-06-29T06:01:12.550Z,65.10
2023-06-29T06:03:40.795Z,65.20
2023-06-29T06:06:08.732Z,65.10
2023-06-29T06:08:36.587Z,65.20
2023-06-29T06:11:04.401Z,65.10
2023-06-29T06:13:32.262Z,65.10
2023-06-29T06:16:01.469Z,65.10
2023-06-29T06:18:29.343Z,65.20
2023-06-29T06:20:57.199Z,65.10
2023-06-29T06:23:25.120Z,65.10
2023-06-29T06:25:52.937Z,65.10
2023-06-29T06:28:20.785Z,65.20
2023-06-29T06:30:49.429Z,65.10
2023-06-29T06:33:18.703Z,65.20
2023-06-29T06:35:46.532Z,65.10
2023-06-29T06:38:14.486Z,65.30
2023-06-29T06:40:42.969Z,65.30
2023-06-29T06:43:11.103Z,65.20
2023-06-29T06:45:39.076Z,65.30
2023-06-29T06:48:07.703Z,65.20
2023-06-29T06:50:38.507Z,65.30
2023-06-29T06:53:06.503Z,65.30
2023-06-29T06:55:34.358Z,65.30
2023-06-29T06:58:02.218Z,65.30
2023-06-29T07:00:30.119Z,65.30
2023-06-29T07:02:58.015Z,65.30
2023-06-29T07:05:25.976Z,65.30
2023-06-29T07:07:55.911Z,65.30
2023-06-29T07:10:23.948Z,65.40
2023-06-29T07:12:52.070Z,65.40
2023-06-29T07:15:19.918Z,65.40
2023-06-29T07:17:48.237Z,65.40
2023-06-29T07:25:18.970Z,65.50
2023-06-29T07:27:46.787Z,65.50
2023-06-29T07:30:15.544Z,65.50
2023-06-29T07:32:43.537Z,65.50
2023-06-29T07:35:11.852Z,65.60
2023-06-29T07:37:39.768Z,65.60
2023-06-29T07:40:10.100Z,65.60
2023-06-29T07:42:40.579Z,65.70
2023-06-29T07:45:09.724Z,65.70
2023-06-29T07:47:37.785Z,65.70
2023-06-29T07:50:06.548Z,65.80
2023-06-29T07:52:34.630Z,66.60
2023-06-29T07:55:02.483Z,65.90
2023-06-29T08:00:02.644Z,65.80
2023-06-29T08:02:47.866Z,65.90
2023-06-29T08:07:46.933Z,65.90
2023-06-29T08:10:15.437Z,65.80
2023-06-29T08:12:43.398Z,65.80
2023-06-29T08:15:12.856Z,65.80
2023-06-29T08:17:40.737Z,65.80
2023-06-29T08:20:13.296Z,65.70
2023-06-29T08:22:41.978Z,65.70
2023-06-29T08:25:10.518Z,65.70
2023-06-29T08:27:38.390Z,65.70
2023-06-29T08:30:07.286Z,65.80
2023-06-29T08:32:36.764Z,65.80
2023-06-29T08:35:05.502Z,65.80
2023-06-29T08:37:33.310Z,65.90
2023-06-29T08:40:01.750Z,65.90
2023-06-29T08:42:29.925Z,65.90
2023-06-29T08:44:57.758Z,65.90
2023-06-29T08:47:26.046Z,65.90
2023-06-29T08:49:58.762Z,66.70
2023-06-29T08:52:31.101Z,66.00
2023-06-29T08:55:00.368Z,65.90
2023-06-29T08:57:29.058Z,66.00
2023-06-29T08:59:57.673Z,66.00
2023-06-29T09:02:26.378Z,66.00
2023-06-29T09:04:55.885Z,65.90
2023-06-29T09:07:24.750Z,65.90
2023-06-29T09:09:52.638Z,65.90
2023-06-29T09:12:20.529Z,65.90
2023-06-29T09:14:49.324Z,65.90
2023-06-29T09:17:18.310Z,66.10
2023-06-29T09:19:55.831Z,65.90
2023-06-29T09:22:28.380Z,66.10
2023-06-29T09:25:09.983Z,65.90
2023-06-29T09:27:44.008Z,66.10
2023-06-29T09:30:19.193Z,66.10
2023-06-29T09:32:47.137Z,66.10
2023-06-29T09:35:15.041Z,66.10
2023-06-29T09:37:46.024Z,66.10
2023-06-29T09:40:14.414Z,66.20
2023-06-29T09:42:42.609Z,66.20
2023-06-29T09:45:13.440Z,66.20
2023-06-29T09:50:20.624Z,66.50
2023-06-29T09:52:55.185Z,66.20
2023-06-29T09:55:31.926Z,66.20
2023-06-29T09:58:00.248Z,66.10
2023-06-29T10:00:28.988Z,66.10
2023-06-29T10:02:57.234Z,66.10
2023-06-29T10:05:25.154Z,66.10
2023-06-29T10:07:55.191Z,66.10
2023-06-29T10:10:24.624Z,66.10
2023-06-29T10:12:57.033Z,66.10
2023-06-29T10:15:28.630Z,66.10
2023-06-29T10:18:03.622Z,66.10
2023-06-29T10:20:34.934Z,66.10
2023-06-29T10:23:06.377Z,66.10
2023-06-29T10:25:38.076Z,66.00
2023-06-29T10:28:06.880Z,66.00
2023-06-29T10:30:46.359Z,66.00
2023-06-29T10:33:15.431Z,66.00
2023-06-29T10:35:53.008Z,66.00
2023-06-29T10:38:22.341Z,66.10
2023-06-29T10:40:51.266Z,66.00
2023-06-29T10:43:19.156Z,66.00
2023-06-29T10:45:47.034Z,66.00
2023-06-29T10:48:34.157Z,65.90
2023-06-29T10:51:08.471Z,65.90
2023-06-29T10:53:37.743Z,65.90
2023-06-29T10:56:05.656Z,65.90
2023-06-29T10:58:38.416Z,65.90
2023-06-29T11:01:06.455Z,65.90
2023-06-29T11:03:36.097Z,65.90
2023-06-29T11:06:04.100Z,65.90
2023-06-29T11:08:33.180Z,65.80
2023-06-29T11:11:15.707Z,65.90
2023-06-29T11:13:43.773Z,65.80
2023-06-29T11:16:14.749Z,65.80
2023-06-29T11:18:50.822Z,65.80
2023-06-29T11:21:21.015Z,65.80
2023-06-29T11:23:51.935Z,65.80
2023-06-29T11:26:21.769Z,65.80
2023-06-29T11:28:49.968Z,65.80
2023-06-29T11:31:18.270Z,65.80
2023-06-29T11:33:49.747Z,65.80
2023-06-29T11:36:27.404Z,65.80
2023-06-29T11:39:05.488Z,65.70
2023-06-29T11:41:35.295Z,65.60
2023-06-29T11:44:03.459Z,65.60
2023-06-29T11:46:34.486Z,65.60
2023-06-29T11:49:03.787Z,65.70
2023-06-29T11:51:32.792Z,65.60
2023-06-29T11:54:01.502Z,65.70
2023-06-29T11:56:39.060Z,65.60
2023-06-29T11:59:07.929Z,65.60
2023-06-29T12:01:37.332Z,65.70
2023-06-29T12:04:06.082Z,65.70
2023-06-29T12:06:35.156Z,65.70
2023-06-29T12:09:03.484Z,65.80
2023-06-29T12:11:31.347Z,65.70
2023-06-29T12:14:03.354Z,65.80
2023-06-29T12:19:10.827Z,65.90
2023-06-29T12:21:39.131Z,65.90
2023-06-29T12:24:07.951Z,65.90
2023-06-29T12:26:35.864Z,65.90
2023-06-29T12:29:05.083Z,65.90
2023-06-29T12:31:33.017Z,65.90
2023-06-29T12:34:01.000Z,65.90
2023-06-29T12:36:28.819Z,65.90
2023-06-29T12:38:56.857Z,66.00
2023-06-29T12:41:24.784Z,66.00
2023-06-29T12:43:52.685Z,65.90
2023-06-29T12:46:24.496Z,66.00
2023-06-29T12:48:52.388Z,66.00
2023-06-29T12:51:20.321Z,65.90
2023-06-29T12:53:48.139Z,65.90
2023-06-29T12:56:16.033Z,65.90
2023-06-29T12:58:43.866Z,65.90
2023-06-29T13:01:11.978Z,65.90
2023-06-29T13:03:41.320Z,65.90
2023-06-29T13:06:09.272Z,65.80
2023-06-29T13:08:37.098Z,65.90
2023-06-29T13:11:05.681Z,65.80
2023-06-29T13:13:33.620Z,65.90
2023-06-29T13:16:01.535Z,65.90
2023-06-29T13:18:29.430Z,65.90
2023-06-29T13:20:58.644Z,65.90
2023-06-29T13:23:26.494Z,65.80
2023-06-29T13:25:54.388Z,65.80
2023-06-29T13:28:22.468Z,65.80
2023-06-29T13:30:50.330Z,65.80
2023-06-29T13:33:18.247Z,65.80
2023-06-29T13:35:46.206Z,65.70
2023-06-29T13:38:15.904Z,65.70
2023-06-29T13:40:43.740Z,65.70
2023-06-29T13:43:11.648Z,65.60
2023-06-29T13:45:39.553Z,65.60
2023-06-29T13:48:07.896Z,65.60
2023-06-29T13:53:06.579Z,65.50
2023-06-29T13:55:35.833Z,65.60
2023-06-29T13:58:03.707Z,65.60
2023-06-29T14:00:31.508Z,65.60
2023-06-29T14:02:59.399Z,65.60
2023-06-29T14:05:27.278Z,65.50
2023-06-29T14:07:55.274Z,65.50
2023-06-29T14:10:23.160Z,65.40
2023-06-29T14:12:52.774Z,65.50
2023-06-29T14:15:20.740Z,65.50
2023-06-29T14:17:48.729Z,65.40
2023-06-29T14:20:17.173Z,65.40
2023-06-29T14:22:45.076Z,65.40
2023-06-29T14:25:12.956Z,65.50
2023-06-29T14:27:40.773Z,65.40
2023-06-29T14:30:12.069Z,65.40
2023-06-29T14:32:40.795Z,65.40
2023-06-29T14:35:09.518Z,65.30
2023-06-29T14:37:37.364Z,65.40
2023-06-29T14:40:07.957Z,65.30
2023-06-29T14:42:37.216Z,65.40
2023-06-29T14:45:05.958Z,65.30
2023-06-29T14:47:35.303Z,65.30
2023-06-29T14:50:03.258Z,65.30
2023-06-29T14:52:31.090Z,65.40
2023-06-29T14:54:59.082Z,65.30
2023-06-29T14:57:27.035Z,65.30
2023-06-29T14:59:54.881Z,65.30
2023-06-29T15:02:25.354Z,65.30
2023-06-29T15:04:54.635Z,65.30
2023-06-29T15:07:23.062Z,65.30
2023-06-29T15:09:51.005Z,65.30
2023-06-29T15:12:18.975Z,66.10
2023-06-29T15:14:46.818Z,65.30
2023-06-29T15:17:14.750Z,65.30
2023-06-29T15:19:42.528Z,65.30
2023-06-29T15:22:11.821Z,65.30
2023-06-29T15:24:39.618Z,65.30
2023-06-29T15:27:07.907Z,65.30
2023-06-29T15:29:35.730Z,65.30
2023-06-29T15:32:03.680Z,65.30
2023-06-29T15:34:31.798Z,65.30
2023-06-29T15:37:01.205Z,65.30
2023-06-29T15:39:32.752Z,65.30
2023-06-29T15:42:00.617Z,65.30
2023-06-29T15:44:28.452Z,65.30
2023-06-29T15:46:56.696Z,65.30
2023-06-29T15:49:24.652Z,65.30
2023-06-29T15:51:52.495Z,65.30
2023-06-29T15:54:20.710Z,65.30
2023-06-29T15:56:49.915Z,65.40
2023-06-29T15:59:18.946Z,65.30
2023-06-29T16:01:46.929Z,65.30
2023-06-29T16:04:17.173Z,65.30
2023-06-29T16:06:46.893Z,65.30
2023-06-29T16:09:14.851Z,65.40
2023-06-29T16:11:42.697Z,65.20
2023-06-29T16:14:12.071Z,65.30
2023-06-29T16:16:40.153Z,65.30
2023-06-29T16:19:08.103Z,65.30
2023-06-29T16:21:35.921Z,65.30
2023-06-29T16:24:03.860Z,65.30
2023-06-29T16:26:31.668Z,65.30
2023-06-29T16:28:59.638Z,65.30
2023-06-29T16:31:28.931Z,65.30
2023-06-29T16:33:57.496Z,65.30
2023-06-29T16:36:25.550Z,65.30
2023-06-29T16:38:53.457Z,65.30
2023-06-29T16:41:21.336Z,65.40
2023-06-29T16:43:50.299Z,65.30
2023-06-29T16:46:18.352Z,65.30
2023-06-29T16:48:58.465Z,65.30
2023-06-29T16:51:26.386Z,65.30
2023-06-29T16:53:54.210Z,65.30
2023-06-29T16:56:22.081Z,65.30
2023-06-29T16:58:50.255Z,65.30
2023-06-29T17:01:18.388Z,65.30
2023-06-29T17:03:46.388Z,65.40
2023-06-29T17:06:15.614Z,65.30
2023-06-29T17:08:45.025Z,65.40
2023-06-29T17:11:13.018Z,65.30
2023-06-29T17:13:40.906Z,65.30
2023-06-29T17:16:09.061Z,65.30
2023-06-29T17:18:36.983Z,65.30
2023-06-29T17:21:05.150Z,65.40
2023-06-29T17:23:34.338Z,65.30
2023-06-29T17:26:03.849Z,65.30
2023-06-29T17:28:31.906Z,65.30
2023-06-29T17:30:59.743Z,65.40
2023-06-29T17:33:30.890Z,65.30
2023-06-29T17:36:05.867Z,65.30
2023-06-29T17:38:35.340Z,65.40
2023-06-29T17:41:03.372Z,65.40
2023-06-29T17:43:31.209Z,65.40
2023-06-29T17:45:59.092Z,65.30
2023-06-29T17:48:26.930Z,65.30
2023-06-29T17:50:54.859Z,65.30
2023-06-29T17:53:22.813Z,65.40
2023-06-29T17:55:52.015Z,65.30
2023-06-29T17:58:19.909Z,65.40
2023-06-29T18:00:47.697Z,65.40
2023-06-29T18:03:15.636Z,65.30
2023-06-29T18:05:43.763Z,65.30
2023-06-29T18:08:11.884Z,65.30
2023-06-29T18:10:39.742Z,65.40
2023-06-29T18:13:08.906Z,65.30
2023-06-29T18:15:36.744Z,65.30
2023-06-29T18:18:04.679Z,65.40
2023-06-29T18:20:33.424Z,65.40
2023-06-29T18:23:01.631Z,65.30
2023-06-29T18:25:29.447Z,65.40
2023-06-29T18:27:57.238Z,65.40
2023-06-29T18:30:26.429Z,65.40
2023-06-29T18:32:55.388Z,65.40
2023-06-29T18:35:23.286Z,65.40
2023-06-29T18:37:51.110Z,65.40
2023-06-29T18:40:19.100Z,65.40
2023-06-29T18:42:46.921Z,65.40
2023-06-29T18:45:14.820Z,65.40
2023-06-29T18:47:44.036Z,65.40
2023-06-29T18:50:12.677Z,65.40
2023-06-29T18:52:40.515Z,65.40
2023-06-29T18:55:08.998Z,65.40
2023-06-29T18:57:36.869Z,65.40
2023-06-29T19:00:05.371Z,65.40
2023-06-29T19:02:33.270Z,65.40
2023-06-29T19:05:03.961Z,65.40
2023-06-29T19:07:31.987Z,65.40
2023-06-29T19:09:59.868Z,65.40
2023-06-29T19:12:27.734Z,65.40
2023-06-29T19:14:55.565Z,65.40
2023-06-29T19:17:23.541Z,65.40
2023-06-29T19:19:51.768Z,65.40
2023-06-29T19:22:21.012Z,65.40
2023-06-29T19:24:48.856Z,65.40
2023-06-29T19:27:16.692Z,65.40
2023-06-29T19:29:44.549Z,65.40
2023-06-29T19:32:12.628Z,65.40
2023-06-29T19:34:40.518Z,65.40
2023-06-29T19:37:08.395Z,65.40
2023-06-29T19:39:37.553Z,65.40
2023-06-29T19:42:06.331Z,65.40
2023-06-29T19:44:34.162Z,65.40
2023-06-29T19:47:02.059Z,65.40
2023-06-29T19:49:30.022Z,65.40
2023-06-29T19:51:58.708Z,65.40
2023-06-29T19:54:27.055Z,65.40
2023-06-29T19:56:56.278Z,65.40
2023-06-29T19:59:25.990Z,65.40
2023-06-29T20:01:54.785Z,65.40
2023-06-29T20:04:22.807Z,65.40
2023-06-29T20:06:51.069Z,65.40
2023-06-29T20:09:19.259Z,65.40
2023-06-29T20:11:47.098Z,65.30
2023-06-29T20:14:16.296Z,65.40
2023-06-29T20:16:44.295Z,65.40
2023-06-29T20:19:12.361Z,65.30
2023-06-29T20:21:40.307Z,65.40
2023-06-29T20:24:08.549Z,65.40
2023-06-29T20:26:37.307Z,65.40
2023-06-29T20:29:05.200Z,65.40
2023-06-29T20:31:34.415Z,65.40
2023-06-29T20:34:02.406Z,65.40
2023-06-29T20:36:30.367Z,65.40
2023-06-29T20:38:58.226Z,65.40
2023-06-29T20:41:26.240Z,65.50
2023-06-29T20:43:54.078Z,65.40
2023-06-29T20:46:23.455Z,65.40
2023-06-29T20:48:52.734Z,65.40
2023-06-29T20:51:20.610Z,65.50
2023-06-29T20:53:48.463Z,65.50
2023-06-29T20:56:16.355Z,65.40
2023-06-29T20:58:44.283Z,65.60
2023-06-29T21:01:12.334Z,65.50
2023-06-29T21:03:44.887Z,65.40
2023-06-29T21:06:14.943Z,65.50
2023-06-29T21:08:42.971Z,65.40
2023-06-29T21:11:11.222Z,65.50
2023-06-29T21:13:39.473Z,65.60
2023-06-29T21:16:08.257Z,65.50
2023-06-29T21:18:36.881Z,65.50
2023-06-29T21:21:05.357Z,65.60
2023-06-29T21:23:35.003Z,65.50
2023-06-29T21:26:03.351Z,65.60
2023-06-29T21:28:32.747Z,66.40
2023-06-29T21:31:01.951Z,65.50
2023-06-29T21:33:30.186Z,65.50
2023-06-29T21:35:58.604Z,65.50
2023-06-29T21:38:31.588Z,65.60
2023-06-29T21:41:01.663Z,65.60
2023-06-29T21:43:29.596Z,65.50
2023-06-29T21:45:57.470Z,65.60
2023-06-29T21:48:25.471Z,65.50
2023-06-29T21:50:53.673Z,65.50
2023-06-29T21:53:22.077Z,65.50
2023-06-29T21:55:49.979Z,65.60
2023-06-29T21:58:19.213Z,65.70
2023-06-29T22:00:47.709Z,65.60
2023-06-29T22:03:16.133Z,65.60
2023-06-29T22:05:44.380Z,65.70
2023-06-29T22:08:12.439Z,65.60
2023-06-29T22:10:40.243Z,65.60
2023-06-29T22:13:08.263Z,65.60
2023-06-29T22:15:44.084Z,65.60
2023-06-29T22:18:12.242Z,65.60
2023-06-29T22:20:40.310Z,65.60
2023-06-29T22:23:08.188Z,65.60
2023-06-29T22:25:36.248Z,65.70
2023-06-29T22:28:04.379Z,65.70
2023-06-29T22:30:32.381Z,65.70
2023-06-29T22:33:01.739Z,65.70
2023-06-29T22:35:30.081Z,65.70
2023-06-29T22:37:58.157Z,65.70
2023-06-29T22:40:26.011Z,65.70
2023-06-29T22:42:53.864Z,65.70
2023-06-29T22:45:23.487Z,65.70
2023-06-29T22:47:51.445Z,65.80
2023-06-29T22:50:20.594Z,65.70
2023-06-29T22:52:48.431Z,65.70
2023-06-29T22:55:16.252Z,65.70
2023-06-29T22:57:44.124Z,65.70
2023-06-29T23:00:13.087Z,65.70
2023-06-29T23:02:40.991Z,65.80
2023-06-29T23:05:09.620Z,65.80
2023-06-29T23:07:44.853Z,65.80
2023-06-29T23:10:14.377Z,65.80
2023-06-29T23:12:46.355Z,65.80
2023-06-29T23:15:14.258Z,65.80
2023-06-29T23:17:42.137Z,65.80
2023-06-29T23:20:13.644Z,65.80
2023-06-29T23:22:44.927Z,66.60
2023-06-29T23:25:13.898Z,65.80
2023-06-29T23:27:44.271Z,65.90
2023-06-29T23:30:13.794Z,65.90
2023-06-29T23:32:42.659Z,65.90
2023-06-29T23:35:11.303Z,65.90
2023-06-29T23:37:39.825Z,65.90
2023-06-29T23:40:11.417Z,65.90
2023-06-29T23:42:40.118Z,65.90
2023-06-29T23:45:10.798Z,65.90
2023-06-29T23:47:39.271Z,65.90
2023-06-29T23:50:11.706Z,65.90
2023-06-29T23:52:40.315Z,65.90
2023-06-29T23:55:12.512Z,65.90
2023-06-29T23:57:41.442Z,65.90
